Time;durP1;ratioP1;P1;durP2;ratioP2;P2;SDS_P1;SDS_P2;PMS_P1;PMS_P2;Temp;Humidity;BMP_temperature;BMP_pressure;BME280_temperature;BME280_humidity;BME280_pressure;Samples;Min_cycle;Max_cycle;Signal;HPM_P1;HPM_P2
2021/12/10 00:01:52;;;;;;;20.70;12.30;;;;;;;2.34;75.21;99518.78;5081515;28;20066;-51
2021/12/10 00:04:22;;;;;;;18.10;11.82;;;;;;;2.35;75.39;99514.41;5062072;28;20047;-51
2021/12/10 00:06:54;;;;;;;19.05;12.30;;;;;;;2.32;75.21;99499.66;5071371;28;20102;-51
2021/12/10 00:09:47;;;;;;;19.00;12.60;;;;;;;2.33;75.54;99496.19;5075606;28;20055;-51
2021/12/10 00:12:19;;;;;;;19.33;12.32;;;;;;;2.33;75.37;99495.34;5058705;28;20123;-51
2021/12/10 00:14:47;;;;;;;22.10;11.93;;;;;;;2.33;75.14;99490.97;5072851;28;20055;-51
2021/12/10 00:17:14;;;;;;;18.35;11.65;;;;;;;2.32;75.10;99489.25;5072101;28;20453;-50
2021/12/10 00:19:45;;;;;;;16.92;11.32;;;;;;;2.34;75.11;99490.16;5072720;28;20046;-51
2021/12/10 00:22:15;;;;;;;15.15;10.48;;;;;;;2.31;75.10;99482.31;5075402;28;20024;-51
2021/12/10 00:24:42;;;;;;;17.83;12.27;;;;;;;2.31;75.12;99477.09;5072867;28;20065;-51
2021/12/10 00:27:09;;;;;;;16.67;11.25;;;;;;;2.32;75.30;99484.03;5075896;28;20024;-51
2021/12/10 00:29:38;;;;;;;17.77;10.90;;;;;;;2.33;75.14;99469.31;5072885;28;20039;-51
2021/12/10 00:32:15;;;;;;;16.27;10.27;;;;;;;2.28;75.23;99466.69;5039485;28;20119;-51
2021/12/10 00:34:46;;;;;;;18.55;10.48;;;;;;;2.31;75.22;99467.56;5071816;28;20067;-51
2021/12/10 00:37:16;;;;;;;14.05;9.82;;;;;;;2.29;75.21;99458.88;5072629;28;20028;-50
2021/12/10 00:39:45;;;;;;;14.32;10.65;;;;;;;2.31;75.37;99451.09;5073368;28;20028;-51
2021/12/10 00:42:13;;;;;;;14.15;9.85;;;;;;;2.32;75.41;99458.03;5072995;28;20035;-51
2021/12/10 00:44:39;;;;;;;16.70;10.63;;;;;;;2.32;75.28;99452.81;5072382;28;20052;-51
2021/12/10 00:47:04;;;;;;;14.68;9.48;;;;;;;2.31;75.30;99448.47;5057446;28;20033;-50
2021/12/10 00:49:30;;;;;;;15.93;10.30;;;;;;;2.31;75.31;99461.50;5073056;28;20041;-50
2021/12/10 00:51:56;;;;;;;15.98;10.15;;;;;;;2.31;74.89;99456.28;5075717;28;20540;-50
2021/12/10 00:54:21;;;;;;;13.98;9.27;;;;;;;2.29;75.07;99448.47;5071917;28;20535;-51
2021/12/10 00:56:49;;;;;;;15.73;9.80;;;;;;;2.30;75.46;99454.53;5072829;28;20044;-50
2021/12/10 00:59:17;;;;;;;14.77;9.30;;;;;;;2.29;75.36;99442.38;5075103;28;20020;-50
2021/12/10 01:01:43;;;;;;;14.73;9.38;;;;;;;2.29;75.29;99445.00;5072832;28;20476;-51
2021/12/10 01:04:14;;;;;;;14.73;9.52;;;;;;;2.27;74.97;99442.38;5072222;28;20469;-51
2021/12/10 01:06:42;;;;;;;15.18;9.35;;;;;;;2.27;75.40;99433.72;5070721;28;20036;-51
2021/12/10 01:09:23;;;;;;;11.93;8.52;;;;;;;2.27;75.56;99434.56;5058335;28;20147;-51
2021/12/10 01:11:54;;;;;;;14.65;9.00;;;;;;;2.28;74.97;99432.84;5070354;28;20070;-50
2021/12/10 01:14:37;;;;;;;14.73;8.95;;;;;;;2.27;75.25;99428.53;5053986;28;20028;-51
2021/12/10 01:28:11;;;;;;;15.68;9.30;;;;;;;2.25;75.23;99409.41;5034761;28;20037;-50
2021/12/10 01:30:38;;;;;;;11.70;7.75;;;;;;;2.23;75.30;99406.81;5075878;28;20036;-51
2021/12/10 01:33:12;;;;;;;11.25;8.45;;;;;;;2.22;75.32;99402.47;5072576;28;20056;-50
2021/12/10 01:35:48;;;;;;;11.57;8.38;;;;;;;2.25;75.25;99396.41;5072295;28;20035;-51
2021/12/10 01:38:14;;;;;;;13.15;9.07;;;;;;;2.22;75.11;99389.47;5060843;28;20031;-50
2021/12/10 01:40:48;;;;;;;13.68;8.27;;;;;;;2.23;75.16;99391.19;5076299;28;20024;-51
2021/12/10 01:43:22;;;;;;;11.43;8.48;;;;;;;2.24;75.17;99386.88;5074782;28;20033;-51
2021/12/10 01:45:50;;;;;;;10.90;8.38;;;;;;;2.24;75.17;99381.66;5075840;28;20016;-51
2021/12/10 01:48:20;;;;;;;11.18;8.32;;;;;;;2.24;75.33;99386.88;5078253;28;20032;-50
2021/12/10 01:50:47;;;;;;;11.48;7.68;;;;;;;2.24;75.06;99389.47;5077681;28;20055;-51
2021/12/10 01:53:14;;;;;;;12.23;8.25;;;;;;;2.24;75.09;99381.66;5061850;28;20077;-51
2021/12/10 01:55:45;;;;;;;10.48;8.23;;;;;;;2.23;75.23;99379.94;5079022;28;20032;-51
2021/12/10 01:58:15;;;;;;;10.95;8.02;;;;;;;2.22;75.20;99380.78;5076682;28;20163;-50
2021/12/10 02:00:45;;;;;;;11.85;7.45;;;;;;;2.24;75.22;99381.66;5074167;28;20024;-51
2021/12/10 02:03:10;;;;;;;10.90;8.07;;;;;;;2.24;74.76;99382.53;5057815;28;20063;-50
2021/12/10 02:05:36;;;;;;;10.73;7.90;;;;;;;2.23;75.36;99379.94;5077799;28;20099;-50
2021/12/10 02:08:02;;;;;;;10.20;7.18;;;;;;;2.23;74.86;99382.53;5080832;28;20035;-51
2021/12/10 02:10:29;;;;;;;10.32;7.20;;;;;;;2.24;75.03;99386.88;5059266;28;20028;-50
2021/12/10 02:12:55;;;;;;;8.75;7.20;;;;;;;2.24;75.22;99376.47;5077536;28;20020;-50
2021/12/10 02:15:22;;;;;;;11.90;8.20;;;;;;;2.22;75.41;99367.75;5074429;28;20028;-50
2021/12/10 02:17:49;;;;;;;10.57;7.05;;;;;;;2.22;75.06;99367.75;5079444;28;20039;-51
2021/12/10 02:20:35;;;;;;;11.82;8.38;;;;;;;2.21;74.88;99360.84;5061519;28;20058;-51
2021/12/10 02:23:04;;;;;;;9.82;7.20;;;;;;;2.19;75.19;99360.81;5061650;28;20404;-50
2021/12/10 02:25:31;;;;;;;11.05;7.43;;;;;;;2.18;75.30;99352.16;5078679;28;20041;-51
2021/12/10 02:27:57;;;;;;;11.63;7.40;;;;;;;2.22;74.89;99341.75;5077529;28;20028;-50
2021/12/10 02:30:25;;;;;;;10.52;7.95;;;;;;;2.20;75.30;99343.50;5079979;28;20031;-50
2021/12/10 02:32:51;;;;;;;11.55;8.35;;;;;;;2.20;74.86;99340.88;5077102;28;20020;-50
2021/12/10 02:35:16;;;;;;;11.00;7.68;;;;;;;2.20;75.04;99338.28;5076769;28;20029;-51
2021/12/10 02:37:43;;;;;;;11.98;7.90;;;;;;;2.19;74.96;99337.41;5074280;28;20035;-51
2021/12/10 02:40:10;;;;;;;11.75;7.68;;;;;;;2.20;75.12;99333.09;5040259;28;20365;-51
2021/12/10 02:42:36;;;;;;;10.65;7.43;;;;;;;2.18;75.18;99323.56;5078082;28;20036;-51
2021/12/10 02:45:04;;;;;;;10.63;7.65;;;;;;;2.20;75.03;99323.53;5076135;28;20034;-51
2021/12/10 02:47:33;;;;;;;12.05;7.93;;;;;;;2.19;75.15;99316.59;5072034;28;20024;-51
2021/12/10 02:49:58;;;;;;;10.23;7.28;;;;;;;2.17;75.21;99313.13;5074180;28;20058;-51
2021/12/10 02:52:26;;;;;;;8.95;7.22;;;;;;;2.18;75.08;99315.75;5080360;28;20050;-51
2021/12/10 02:54:57;;;;;;;9.57;7.55;;;;;;;2.18;75.10;99309.66;5075317;28;20099;-51
2021/12/10 02:57:22;;;;;;;10.23;6.95;;;;;;;2.20;75.02;99304.47;5076336;28;20023;-51
2021/12/10 02:59:48;;;;;;;10.90;7.22;;;;;;;2.19;75.30;99306.19;5077143;28;20032;-50
2021/12/10 03:02:16;;;;;;;12.05;7.75;;;;;;;2.17;75.34;99308.78;5077969;28;20021;-51
2021/12/10 03:04:43;;;;;;;10.43;7.10;;;;;;;2.18;74.99;99310.53;5057732;28;20411;-51
2021/12/10 03:07:13;;;;;;;10.05;7.35;;;;;;;2.18;75.10;99299.25;5076999;28;20082;-51
2021/12/10 03:09:43;;;;;;;11.40;7.25;;;;;;;2.18;75.01;99294.94;5081071;28;20509;-51
2021/12/10 03:12:12;;;;;;;8.98;6.90;;;;;;;2.18;74.92;99294.94;5073712;28;20024;-51
2021/12/10 03:14:40;;;;;;;9.98;6.45;;;;;;;2.18;75.06;99284.53;5070556;28;20027;-50
2021/12/10 03:17:09;;;;;;;10.38;6.95;;;;;;;2.19;74.96;99285.38;5072986;28;20024;-51
2021/12/10 03:19:34;;;;;;;9.15;7.22;;;;;;;2.16;75.11;99294.03;5074152;28;20534;-51
2021/12/10 03:22:00;;;;;;;8.90;7.05;;;;;;;2.16;75.07;99286.25;5077039;28;20024;-51
2021/12/10 03:24:27;;;;;;;8.13;6.45;;;;;;;2.13;75.28;99283.63;5075631;28;20069;-51
2021/12/10 03:26:54;;;;;;;10.50;6.53;;;;;;;2.17;75.31;99277.56;5076438;28;20061;-51
2021/12/10 03:29:21;;;;;;;9.88;6.68;;;;;;;2.15;75.23;99286.25;5056536;28;20041;-51
2021/12/10 03:31:47;;;;;;;10.60;7.30;;;;;;;2.15;75.13;99283.63;5073998;28;20056;-51
2021/12/10 03:34:12;;;;;;;11.98;7.95;;;;;;;2.15;75.05;99281.91;5057312;28;20028;-50
2021/12/10 03:36:45;;;;;;;10.50;7.10;;;;;;;2.16;75.08;99268.03;5071618;28;20027;-50
2021/12/10 03:39:12;;;;;;;8.35;6.38;;;;;;;2.15;75.12;99258.50;5060014;28;20036;-51
2021/12/10 03:41:37;;;;;;;9.82;6.75;;;;;;;2.16;75.00;99261.94;5073880;28;20024;-51
2021/12/10 03:44:03;;;;;;;9.15;6.22;;;;;;;2.15;74.99;99253.31;5073461;28;20040;-51
2021/12/10 03:46:28;;;;;;;8.45;6.43;;;;;;;2.15;75.16;99253.31;5075974;28;20024;-51
2021/12/10 03:48:53;;;;;;;8.73;6.68;;;;;;;2.15;75.10;99249.81;5072992;28;20020;-51
2021/12/10 03:51:22;;;;;;;9.88;6.68;;;;;;;2.14;75.09;99246.34;5073338;28;20055;-50
2021/12/10 03:53:48;;;;;;;8.52;6.38;;;;;;;2.13;74.92;99239.41;5073560;28;20063;-51
2021/12/10 03:56:19;;;;;;;8.27;7.32;;;;;;;2.14;75.19;99238.53;5075751;28;20056;-51
2021/12/10 03:58:45;;;;;;;9.80;6.75;;;;;;;2.15;75.21;99231.59;5069738;28;20039;-51
2021/12/10 04:01:12;;;;;;;11.05;7.15;;;;;;;2.15;74.95;99222.09;5066632;28;20396;-50
2021/12/10 04:03:38;;;;;;;8.60;6.63;;;;;;;2.14;75.03;99220.31;5076350;28;20027;-51
2021/12/10 04:06:04;;;;;;;9.75;6.80;;;;;;;2.13;75.14;99218.59;5073126;28;20023;-51
2021/12/10 04:08:30;;;;;;;9.10;6.82;;;;;;;2.13;75.18;99226.41;5073228;28;20052;-51
2021/12/10 04:10:56;;;;;;;11.10;6.47;;;;;;;2.13;75.13;99218.59;5076038;28;20421;-51
2021/12/10 04:13:22;;;;;;;9.80;6.38;;;;;;;2.14;75.15;99209.91;5057472;28;20031;-51
2021/12/10 04:15:47;;;;;;;9.20;6.50;;;;;;;2.13;75.45;99207.34;5073171;28;20396;-51
2021/12/10 04:18:13;;;;;;;9.65;6.47;;;;;;;2.13;74.99;99207.34;5075660;28;20036;-51
2021/12/10 04:20:39;;;;;;;8.85;6.78;;;;;;;2.14;75.35;99202.13;5072010;28;20024;-51
2021/12/10 04:23:08;;;;;;;10.13;6.40;;;;;;;2.12;75.00;99206.47;5055935;28;20047;-51
2021/12/10 04:25:34;;;;;;;8.50;6.38;;;;;;;2.12;75.17;99198.66;5075582;28;20059;-50
2021/12/10 04:28:02;;;;;;;8.85;6.28;;;;;;;2.13;75.30;99197.78;5054545;28;20028;-50
2021/12/10 04:30:35;;;;;;;9.30;6.57;;;;;;;2.13;75.20;99191.72;5068379;28;20036;-51
2021/12/10 04:33:02;;;;;;;10.15;7.00;;;;;;;2.12;74.68;99200.38;5071254;28;20035;-50
2021/12/10 04:35:27;;;;;;;7.60;6.80;;;;;;;2.11;75.18;99190.84;5057042;28;20035;-51
2021/12/10 04:37:53;;;;;;;7.05;5.43;;;;;;;2.11;75.14;99193.44;5072392;28;20024;-51
2021/12/10 04:40:23;;;;;;;9.43;6.40;;;;;;;2.12;75.14;99187.38;5072147;28;20048;-51
2021/12/10 04:42:50;;;;;;;9.05;6.18;;;;;;;2.11;75.16;99191.72;5070058;28;20012;-51
2021/12/10 04:45:16;;;;;;;8.68;5.95;;;;;;;2.11;75.28;99191.72;5077195;28;20033;-50
2021/12/10 04:47:42;;;;;;;8.73;6.18;;;;;;;2.11;75.20;99189.13;5072877;28;20029;-51
2021/12/10 04:50:09;;;;;;;8.15;6.05;;;;;;;2.11;75.29;99189.13;5057426;28;20013;-51
2021/12/10 04:52:36;;;;;;;10.38;7.40;;;;;;;2.11;75.14;99189.13;5075678;28;20020;-51
2021/12/10 04:55:05;;;;;;;8.13;5.68;;;;;;;2.10;75.18;99195.19;5075105;28;20037;-50
2021/12/10 04:57:31;;;;;;;7.63;6.45;;;;;;;2.11;75.36;99189.13;5072704;28;20547;-51
2021/12/10 04:59:57;;;;;;;7.68;5.75;;;;;;;2.09;75.27;99190.84;5072799;28;20078;-50
2021/12/10 05:02:23;;;;;;;7.18;6.30;;;;;;;2.11;75.03;99189.13;5072729;28;20046;-53
2021/12/10 05:04:48;;;;;;;9.40;6.80;;;;;;;2.11;75.15;99189.13;5056385;28;20012;-51
2021/12/10 05:07:15;;;;;;;7.85;6.15;;;;;;;2.08;75.53;99183.91;5075073;28;20451;-50
2021/12/10 05:09:41;;;;;;;7.60;5.97;;;;;;;2.10;74.89;99184.78;5074327;28;20044;-49
2021/12/10 05:12:07;;;;;;;11.57;6.55;;;;;;;2.12;75.26;99195.19;5072969;28;20117;-50
2021/12/10 05:14:33;;;;;;;9.07;6.25;;;;;;;2.11;75.36;99190.84;5078398;28;20028;-50
2021/12/10 05:17:04;;;;;;;8.70;6.05;;;;;;;2.11;75.31;99189.13;5077980;28;20468;-50
2021/12/10 05:19:31;;;;;;;8.35;6.80;;;;;;;2.09;75.22;99179.56;5080306;28;20442;-51
2021/12/10 05:21:59;;;;;;;8.73;6.35;;;;;;;2.09;74.99;99185.66;5076660;28;20035;-50
2021/12/10 05:24:26;;;;;;;8.65;5.95;;;;;;;2.11;75.46;99183.94;5075458;28;20451;-50
2021/12/10 05:26:52;;;;;;;9.48;6.72;;;;;;;2.11;75.15;99180.44;5073384;28;20101;-50
2021/12/10 05:29:17;;;;;;;9.35;7.05;;;;;;;2.12;75.21;99190.84;5081951;28;20388;-49
2021/12/10 05:31:44;;;;;;;8.82;6.00;;;;;;;2.09;74.95;99190.84;5078698;28;20804;-50
2021/12/10 05:34:11;;;;;;;8.38;6.20;;;;;;;2.09;74.92;99190.84;5041739;28;20020;-50
2021/12/10 05:36:36;;;;;;;7.85;5.93;;;;;;;2.09;75.12;99187.38;5076541;28;20020;-50
2021/12/10 05:39:04;;;;;;;8.32;7.05;;;;;;;2.09;75.18;99183.03;5076630;28;20024;-48
2021/12/10 05:41:29;;;;;;;9.20;6.65;;;;;;;2.06;75.21;99175.22;5044667;28;20031;-50
2021/12/10 05:43:54;;;;;;;8.32;6.72;;;;;;;2.08;75.02;99176.13;5077019;28;20029;-51
2021/12/10 05:46:20;;;;;;;10.45;6.55;;;;;;;2.08;75.24;99177.84;5072548;28;20027;-50
2021/12/10 05:48:45;;;;;;;9.50;6.95;;;;;;;2.07;75.34;99171.78;5075913;28;20024;-52
2021/12/10 05:51:11;;;;;;;9.93;6.65;;;;;;;2.10;75.10;99171.75;5058226;28;20123;-49
2021/12/10 05:53:36;;;;;;;7.63;6.10;;;;;;;2.10;75.00;99161.34;5042122;28;20090;-49
2021/12/10 05:56:02;;;;;;;11.15;6.28;;;;;;;2.09;75.12;99169.16;5077776;28;20056;-49
2021/12/10 05:58:27;;;;;;;7.72;6.30;;;;;;;2.07;75.41;99163.97;5076208;28;20488;-51
2021/12/10 06:01:00;;;;;;;8.55;5.85;;;;;;;2.08;75.14;99162.22;5081550;28;20032;-50
2021/12/10 06:03:26;;;;;;;9.48;6.18;;;;;;;2.07;75.17;99161.38;5047034;28;20082;-49
2021/12/10 06:05:52;;;;;;;8.43;6.43;;;;;;;2.07;75.13;99156.19;5079994;28;20029;-49
2021/12/10 06:08:18;;;;;;;7.32;6.15;;;;;;;2.07;74.71;99150.97;5077147;28;20039;-50
2021/12/10 06:10:45;;;;;;;11.23;6.88;;;;;;;2.09;75.23;99148.34;5074561;28;20468;-49
2021/12/10 06:13:10;;;;;;;9.02;7.00;;;;;;;2.09;75.21;99146.63;5077512;28;20476;-49
2021/12/10 06:15:36;;;;;;;8.60;6.75;;;;;;;2.09;75.17;99150.94;5081752;28;20042;-49
2021/12/10 06:18:02;;;;;;;9.15;6.32;;;;;;;2.09;75.15;99143.16;5076459;28;20082;-52
2021/12/10 06:20:30;;;;;;;9.55;6.68;;;;;;;2.07;75.27;99140.56;5075786;28;20036;-50
2021/12/10 06:22:57;;;;;;;10.90;6.68;;;;;;;2.07;75.15;99134.50;5080517;28;20029;-50
2021/12/10 06:25:23;;;;;;;9.35;6.95;;;;;;;2.05;75.07;99130.16;5060917;28;20020;-49
2021/12/10 06:27:48;;;;;;;10.30;6.78;;;;;;;2.08;75.29;99131.03;5062151;28;20103;-49
2021/12/10 06:30:17;;;;;;;8.90;6.65;;;;;;;2.06;75.51;99123.22;5076066;28;20035;-48
2021/12/10 06:32:44;;;;;;;9.05;6.30;;;;;;;2.06;75.26;99115.41;5065195;28;20426;-49
2021/12/10 06:35:10;;;;;;;7.38;6.18;;;;;;;2.06;75.28;99115.41;5076594;28;20055;-50
2021/12/10 06:37:37;;;;;;;8.60;6.45;;;;;;;2.05;75.20;99111.09;5077429;28;20060;-50
2021/12/10 06:40:10;;;;;;;7.55;6.45;;;;;;;2.08;75.15;99115.41;5075701;28;20507;-50
2021/12/10 06:42:35;;;;;;;8.77;6.50;;;;;;;2.07;75.14;99114.56;5061960;28;20067;-49
2021/12/10 06:45:07;;;;;;;8.82;6.75;;;;;;;2.06;75.35;99105.00;5075075;28;20144;-49
2021/12/10 06:47:33;;;;;;;8.52;6.85;;;;;;;2.05;75.30;99106.75;5074760;28;20046;-49
2021/12/10 06:49:58;;;;;;;10.45;7.00;;;;;;;2.07;75.22;99104.16;5078183;28;20091;-50
2021/12/10 06:52:24;;;;;;;9.43;6.90;;;;;;;2.06;75.33;99099.81;5078100;28;20017;-50
2021/12/10 06:54:49;;;;;;;7.85;6.35;;;;;;;2.07;75.22;99103.28;5057479;28;20033;-49
2021/12/10 06:57:15;;;;;;;8.68;7.18;;;;;;;2.06;75.32;99105.00;5057356;28;20016;-50
2021/12/10 06:59:40;;;;;;;11.77;7.43;;;;;;;2.07;75.22;99108.47;5072505;28;20159;-51
2021/12/10 07:02:06;;;;;;;10.10;6.55;;;;;;;2.07;75.12;99109.38;5076787;28;20106;-49
2021/12/10 07:04:31;;;;;;;9.50;6.85;;;;;;;2.07;75.28;99096.34;5075752;28;20527;-49
2021/12/10 07:06:56;;;;;;;10.55;7.47;;;;;;;2.07;75.24;99098.97;5056253;28;20028;-49
2021/12/10 07:09:25;;;;;;;8.52;6.30;;;;;;;2.04;75.03;99093.75;5076689;28;20495;-49
2021/12/10 07:11:53;;;;;;;8.73;7.28;;;;;;;2.08;75.31;99100.69;5081885;28;20484;-50
2021/12/10 07:14:18;;;;;;;8.95;7.45;;;;;;;2.07;75.12;99104.16;5058781;28;20074;-49
2021/12/10 07:16:45;;;;;;;9.10;6.70;;;;;;;2.07;75.19;99105.88;5043559;28;20427;-50
2021/12/10 07:19:10;;;;;;;8.52;7.00;;;;;;;2.05;75.41;99095.47;5061911;28;20055;-50
2021/12/10 07:21:36;;;;;;;9.02;7.40;;;;;;;2.04;75.39;99091.16;5076164;28;20455;-49
2021/12/10 07:24:06;;;;;;;8.15;7.25;;;;;;;2.06;75.14;99097.19;5074452;28;20069;-50
2021/12/10 07:26:33;;;;;;;8.77;7.28;;;;;;;2.05;75.15;99090.28;5072602;28;20028;-48
2021/12/10 07:28:59;;;;;;;9.10;6.53;;;;;;;2.05;75.23;99090.28;5076279;28;20016;-49
2021/12/10 07:31:24;;;;;;;10.43;7.07;;;;;;;2.06;75.27;99086.78;5079293;28;20062;-51
2021/12/10 07:33:49;;;;;;;9.05;7.07;;;;;;;2.08;75.07;99085.06;5076887;28;20039;-50
2021/12/10 07:36:15;;;;;;;10.90;7.43;;;;;;;2.06;75.20;99092.00;5073518;28;20059;-50
2021/12/10 07:38:42;;;;;;;9.27;7.43;;;;;;;2.05;75.26;99096.34;5078441;28;20063;-51
2021/12/10 07:41:07;;;;;;;9.82;7.93;;;;;;;2.04;75.15;99086.78;5058368;28;20036;-50
2021/12/10 07:43:34;;;;;;;10.13;6.82;;;;;;;2.09;75.05;99088.53;5074639;28;20073;-50
2021/12/10 07:45:59;;;;;;;8.63;6.93;;;;;;;2.08;74.98;99084.19;5057163;28;20456;-49
2021/12/10 07:48:27;;;;;;;8.95;6.57;;;;;;;2.07;75.03;99078.16;5076105;28;20118;-50
2021/12/10 07:51:00;;;;;;;9.40;7.53;;;;;;;2.05;75.16;99070.34;5073620;28;20021;-50
2021/12/10 07:53:28;;;;;;;8.52;7.40;;;;;;;2.06;75.42;99071.19;5079820;28;20055;-53
2021/12/10 07:55:55;;;;;;;11.93;7.72;;;;;;;2.02;75.40;99059.94;5081371;28;20056;-51
2021/12/10 07:58:21;;;;;;;12.25;8.48;;;;;;;2.03;75.69;99063.38;5073049;28;20024;-51
2021/12/10 08:00:47;;;;;;;14.65;8.63;;;;;;;2.04;75.46;99062.53;5054684;28;20612;-51
2021/12/10 08:03:15;;;;;;;12.93;9.25;;;;;;;2.01;75.52;99055.63;5054649;28;20054;-49
2021/12/10 08:05:41;;;;;;;31.00;11.57;;;;;;;2.07;75.58;99059.06;5058608;28;20423;-50
2021/12/10 08:08:07;;;;;;;60.67;13.95;;;;;;;2.05;75.71;99043.47;5076331;28;20028;-50
2021/12/10 08:10:34;;;;;;;45.90;14.10;;;;;;;2.05;75.73;99043.47;5076829;28;20374;-48
2021/12/10 08:13:00;;;;;;;33.55;11.82;;;;;;;2.05;75.28;99039.13;5071293;28;20016;-50
2021/12/10 08:15:25;;;;;;;40.63;12.75;;;;;;;2.05;75.39;99038.25;5055118;28;20107;-50
2021/12/10 08:17:51;;;;;;;30.15;10.70;;;;;;;2.04;75.66;99028.72;5075238;28;20099;-50
2021/12/10 08:20:20;;;;;;;36.13;11.43;;;;;;;2.04;75.29;99028.72;5075834;28;20043;-50
2021/12/10 08:22:47;;;;;;;24.70;11.77;;;;;;;2.04;75.47;99026.13;5067383;28;20033;-50
2021/12/10 08:25:13;;;;;;;20.50;10.70;;;;;;;2.04;75.32;99028.72;5071690;28;20027;-50
2021/12/10 08:27:38;;;;;;;19.90;11.40;;;;;;;2.05;75.44;99028.72;5057311;28;20024;-49
2021/12/10 08:30:10;;;;;;;22.48;9.93;;;;;;;2.05;75.53;99040.84;5054483;28;20056;-50
2021/12/10 08:32:38;;;;;;;21.67;11.10;;;;;;;2.07;75.10;99033.06;5056608;28;20025;-50
2021/12/10 08:35:08;;;;;;;18.42;9.85;;;;;;;2.03;75.49;99026.97;5058393;28;20074;-51
2021/12/10 08:37:33;;;;;;;21.13;11.80;;;;;;;2.04;75.66;99039.13;5070241;28;20029;-49
2021/12/10 08:39:59;;;;;;;22.05;10.20;;;;;;;2.04;75.32;99029.56;5074072;28;20483;-50
2021/12/10 08:42:25;;;;;;;19.80;10.38;;;;;;;2.05;75.35;99028.72;5072163;28;20031;-51
2021/12/10 08:44:51;;;;;;;17.90;10.52;;;;;;;2.05;75.44;99027.84;5072449;28;20016;-50
2021/12/10 08:47:17;;;;;;;24.98;10.65;;;;;;;2.05;75.45;99038.25;5072355;28;20042;-51
2021/12/10 08:49:43;;;;;;;15.13;10.20;;;;;;;2.05;75.39;99038.25;5057978;28;20396;-52
2021/12/10 08:52:10;;;;;;;17.65;10.07;;;;;;;2.04;75.35;99021.78;5072327;28;20016;-50
2021/12/10 08:54:39;;;;;;;20.98;9.75;;;;;;;2.03;75.54;99021.78;5070101;28;20098;-49
2021/12/10 08:57:05;;;;;;;16.08;9.27;;;;;;;2.03;75.53;99008.78;5073081;28;20081;-50
2021/12/10 08:59:31;;;;;;;14.07;9.90;;;;;;;2.01;75.46;99013.13;5073124;28;20554;-51
2021/12/10 09:01:59;;;;;;;14.48;9.55;;;;;;;2.03;75.53;99008.78;5071139;28;20039;-51
2021/12/10 09:04:26;;;;;;;13.80;8.95;;;;;;;2.02;75.46;99013.13;5072651;28;20498;-52
2021/12/10 09:06:55;;;;;;;14.85;9.23;;;;;;;2.04;75.55;99002.72;5069372;28;20031;-51
2021/12/10 09:09:21;;;;;;;16.52;10.07;;;;;;;2.05;75.36;98996.66;5054737;28;20028;-49
2021/12/10 09:11:50;;;;;;;17.65;11.93;;;;;;;2.04;75.46;99000.13;5074890;28;20033;-49
2021/12/10 09:14:17;;;;;;;14.02;10.38;;;;;;;2.04;75.53;98994.91;5053933;28;20387;-48
2021/12/10 09:16:43;;;;;;;19.23;10.32;;;;;;;2.05;75.26;98997.53;5073816;28;20027;-52
2021/12/10 09:19:11;;;;;;;15.45;10.35;;;;;;;2.05;75.26;98994.91;5073778;28;20016;-50
2021/12/10 09:21:38;;;;;;;14.60;10.60;;;;;;;2.04;75.59;98990.56;5074999;28;20047;-48
2021/12/10 09:24:06;;;;;;;17.58;11.18;;;;;;;2.05;75.59;98981.91;5073562;28;20090;-49
2021/12/10 09:26:35;;;;;;;17.48;10.85;;;;;;;2.05;75.54;98978.44;5072398;28;20043;-48
2021/12/10 09:29:04;;;;;;;15.90;10.63;;;;;;;2.03;75.57;98980.16;5072183;28;20074;-48
2021/12/10 09:31:30;;;;;;;16.85;11.07;;;;;;;2.07;75.28;98971.53;5056309;28;20480;-49
2021/12/10 09:33:57;;;;;;;14.90;10.43;;;;;;;2.05;75.29;98968.91;5072074;28;20046;-49
2021/12/10 09:36:23;;;;;;;19.45;11.48;;;;;;;2.05;75.48;98970.63;5076296;28;20031;-47
2021/12/10 09:38:49;;;;;;;16.55;10.95;;;;;;;2.03;75.40;98962.84;5078194;28;20012;-53
2021/12/10 09:41:16;;;;;;;16.48;10.80;;;;;;;2.02;75.67;98949.84;5074480;28;20034;-49
2021/12/10 09:43:41;;;;;;;17.25;10.65;;;;;;;2.01;75.41;98958.50;5069971;28;21501;-48
2021/12/10 09:46:09;;;;;;;15.88;11.25;;;;;;;2.00;75.64;98946.38;5072508;28;20032;-50
2021/12/10 09:48:35;;;;;;;13.80;10.07;;;;;;;2.00;75.76;98951.59;5073623;28;20063;-49
2021/12/10 09:51:04;;;;;;;16.55;10.88;;;;;;;2.00;75.79;98948.97;5070058;28;20048;-48
2021/12/10 09:53:33;;;;;;;18.67;10.98;;;;;;;2.01;75.65;98948.09;5053890;28;20054;-48
2021/12/10 09:56:00;;;;;;;16.48;11.30;;;;;;;2.02;75.72;98945.50;5068156;28;20024;-50
2021/12/10 09:58:28;;;;;;;14.02;11.07;;;;;;;2.02;75.74;98940.31;5070197;28;20052;-49
2021/12/10 10:01:16;;;;;;;13.73;9.98;;;;;;;2.03;75.66;98935.94;5077799;28;20090;-49
2021/12/10 10:03:46;;;;;;;14.00;10.80;;;;;;;2.03;75.73;98935.94;5076610;28;20028;-49
2021/12/10 10:06:13;;;;;;;16.17;10.10;;;;;;;2.04;75.64;98929.91;5077231;28;20028;-49
2021/12/10 10:08:39;;;;;;;14.98;10.57;;;;;;;2.03;76.03;98930.75;5077718;28;20067;-48
2021/12/10 10:11:09;;;;;;;16.10;10.45;;;;;;;2.05;75.64;98921.22;5075223;28;20036;-48
2021/12/10 10:13:38;;;;;;;15.65;10.50;;;;;;;2.04;75.85;98925.56;5075250;28;20017;-49
2021/12/10 10:16:03;;;;;;;14.15;10.23;;;;;;;2.03;76.09;98923.81;5060176;28;20024;-49
2021/12/10 10:18:33;;;;;;;10.95;9.32;;;;;;;2.05;76.09;98929.03;5075759;28;20387;-50
2021/12/10 10:21:04;;;;;;;14.75;9.98;;;;;;;2.07;76.09;98931.63;5078181;28;20493;-48
2021/12/10 10:23:31;;;;;;;13.48;9.63;;;;;;;2.07;75.92;98924.69;5072564;28;20023;-49
2021/12/10 10:26:00;;;;;;;12.75;9.55;;;;;;;2.07;75.87;98922.09;5076126;28;20029;-49
2021/12/10 10:28:26;;;;;;;13.90;9.93;;;;;;;2.07;75.84;98922.09;5044889;28;20421;-48
2021/12/10 10:31:02;;;;;;;15.57;10.00;;;;;;;2.09;75.90;98922.06;5059866;28;20077;-48
2021/12/10 10:33:31;;;;;;;12.65;9.65;;;;;;;2.07;75.96;98916.91;5075317;28;20024;-50
2021/12/10 10:35:58;;;;;;;15.30;9.90;;;;;;;2.05;76.18;98913.41;5058284;28;20036;-48
2021/12/10 10:38:24;;;;;;;14.30;9.73;;;;;;;2.09;75.84;98922.94;5071762;28;20047;-50
2021/12/10 10:40:54;;;;;;;16.88;9.70;;;;;;;2.11;75.77;98918.63;5073567;28;20507;-48
2021/12/10 10:43:22;;;;;;;13.40;8.75;;;;;;;2.10;75.81;98909.06;5078991;28;20577;-49
2021/12/10 10:45:48;;;;;;;13.20;9.02;;;;;;;2.13;75.74;98916.00;5075498;28;20066;-49
2021/12/10 10:48:16;;;;;;;14.52;9.68;;;;;;;2.12;76.02;98907.34;5056896;28;20025;-48
2021/12/10 10:51:10;;;;;;;11.32;8.65;;;;;;;2.12;75.85;98904.72;5075982;28;20024;-49
2021/12/10 10:53:44;;;;;;;12.88;9.20;;;;;;;2.10;76.07;98906.47;5075340;28;20085;-49
2021/12/10 10:56:15;;;;;;;13.43;8.93;;;;;;;2.11;75.83;98897.81;5057297;28;20032;-49
2021/12/10 10:58:50;;;;;;;12.50;8.38;;;;;;;2.11;75.87;98902.13;5055546;28;20055;-50
2021/12/10 11:01:24;;;;;;;12.18;9.18;;;;;;;2.24;75.71;98892.56;5076406;28;20129;-49
2021/12/10 11:04:02;;;;;;;17.20;12.73;;;;;;;2.42;75.32;98896.81;5075825;28;20036;-49
2021/12/10 11:06:34;;;;;;;15.65;10.43;;;;;;;2.48;75.68;98890.72;5075250;28;20814;-48
2021/12/10 11:09:25;;;;;;;20.30;13.23;;;;;;;2.54;77.26;98890.69;5057130;28;20032;-49
2021/12/10 11:12:12;;;;;;;19.42;12.07;;;;;;;2.56;76.00;98894.13;5071439;28;20020;-50
2021/12/10 11:14:44;;;;;;;20.20;12.02;;;;;;;2.57;76.74;98890.69;5072855;28;20377;-49
2021/12/10 11:17:10;;;;;;;;;;;;;;;2.55;76.21;98897.63;5076135;28;20054;-50
2021/12/10 11:19:35;;;;;;;17.08;11.35;;;;;;;2.55;77.32;98893.28;5076993;28;19916;-49
2021/12/10 11:22:08;;;;;;;16.25;11.27;;;;;;;2.56;77.44;98894.13;5075696;28;20123;-49
2021/12/10 11:24:45;;;;;;;19.80;13.00;;;;;;;2.54;77.34;98891.53;5076851;28;20028;-49
2021/12/10 11:27:20;;;;;;;19.92;11.88;;;;;;;2.55;78.31;98887.22;5059118;28;20029;-49
2021/12/10 11:30:00;;;;;;;19.20;12.10;;;;;;;2.57;78.12;98880.28;5074536;28;20510;-50
2021/12/10 11:32:25;;;;;;;19.50;11.68;;;;;;;2.57;78.04;98880.28;5060273;28;20403;-49
2021/12/10 11:35:31;;;;;;;17.13;12.60;;;;;;;2.58;78.14;98887.19;5074897;28;20025;-50
2021/12/10 11:38:31;;;;;;;17.88;12.25;;;;;;;2.58;77.78;98882.00;5074794;28;20321;-49
2021/12/10 11:41:21;;;;;;;17.33;11.07;;;;;;;2.58;78.60;98876.78;5056574;28;20664;-49
2021/12/10 11:44:26;;;;;;;20.47;11.20;;;;;;;2.56;78.70;98871.59;5076038;28;20089;-49
2021/12/10 11:49:38;;;;;;;16.58;12.35;;;;;;;2.58;79.11;98874.19;5073192;28;20119;-49
2021/12/10 11:52:13;;;;;;;14.90;10.05;;;;;;;2.58;79.09;98868.09;5056352;28;20654;-49
2021/12/10 11:54:41;;;;;;;16.38;11.77;;;;;;;2.56;80.10;98869.00;5072115;28;20031;-49